Time;durP1;ratioP1;P1;durP2;ratioP2;P2;SDS_P1;SDS_P2;PMS_P1;PMS_P2;Temp;Humidity;BMP_temperature;BMP_pressure;BME280_temperature;BME280_humidity;BME280_pressure;Samples;Min_cycle;Max_cycle;Signal;HPM_P1;HPM_P2
2022/03/30 00:29:28;;;;;;;9.50;7.32;;;;;;;;;;6244470;23;20024;-72
2022/03/30 00:31:54;;;;;;;6.32;5.68;;;;;;;;;;6217053;23;20012;-73
2022/03/30 00:34:19;;;;;;;6.05;5.47;;;;;;;;;;6192677;23;20023;-73
2022/03/30 00:36:45;;;;;;;5.15;4.75;;;;;;;;;;6217779;23;20024;-72
2022/03/30 00:39:11;;;;;;;7.70;6.95;;;;;;;;;;6244717;23;20035;-72
2022/03/30 00:41:38;;;;;;;6.70;6.10;;;;;;;;;;6217503;23;20018;-73
2022/03/30 00:44:11;;;;;;;9.57;6.95;;;;;;;;;;6243514;23;20348;-72
2022/03/30 00:46:37;;;;;;;7.32;6.63;;;;;;;;;;6217202;23;20019;-71
2022/03/30 00:49:04;;;;;;;8.00;7.20;;;;;;;;;;6242438;23;20094;-73
2022/03/30 00:51:33;;;;;;;8.05;7.35;;;;;;;;;;6218411;23;20012;-72
2022/03/30 00:53:59;;;;;;;7.57;6.80;;;;;;;;;;6246336;23;20018;-73
2022/03/30 00:56:25;;;;;;;8.27;7.22;;;;;;;;;;6220142;23;20055;-72
2022/03/30 00:58:50;;;;;;;8.93;6.95;;;;;;;;;;6245471;23;20008;-72
2022/03/30 01:01:17;;;;;;;7.82;7.22;;;;;;;;;;6219764;23;20018;-72
2022/03/30 01:03:43;;;;;;;9.45;7.72;;;;;;;;;;6192350;23;20018;-73
2022/03/30 01:06:08;;;;;;;6.20;5.78;;;;;;;;;;6220542;23;20429;-72
2022/03/30 01:08:35;;;;;;;7.28;6.65;;;;;;;;;;6247912;23;20506;-73
2022/03/30 01:11:01;;;;;;;7.80;6.40;;;;;;;;;;6220152;23;20016;-73
2022/03/30 01:13:27;;;;;;;8.15;7.20;;;;;;;;;;6245853;23;20008;-72
2022/03/30 01:15:52;;;;;;;5.55;5.15;;;;;;;;;;6243032;23;20475;-73
2022/03/30 01:18:18;;;;;;;7.28;6.18;;;;;;;;;;6245454;23;20015;-74
2022/03/30 01:20:48;;;;;;;8.80;8.10;;;;;;;;;;6244384;23;20008;-73
2022/03/30 01:23:13;;;;;;;7.43;6.68;;;;;;;;;;6245060;23;20016;-73
2022/03/30 01:25:39;;;;;;;8.18;7.20;;;;;;;;;;6243447;23;20593;-72
2022/03/30 01:28:06;;;;;;;3.72;3.45;;;;;;;;;;6257805;22;20103;-73
2022/03/30 01:33:16;;;;;;;3.30;3.05;;;;;;;;;;6276830;22;20037;-72
2022/03/30 01:35:42;;;;;;;5.93;5.30;;;;;;;;;;6275231;22;20015;-72
2022/03/30 01:38:08;;;;;;;4.10;3.80;;;;;;;;;;6276378;22;20011;-72
2022/03/30 01:40:33;;;;;;;4.80;4.40;;;;;;;;;;6277861;22;20016;-71
2022/03/30 01:42:59;;;;;;;5.32;4.68;;;;;;;;;;6278283;22;20387;-72
2022/03/30 01:45:25;;;;;;;2.63;2.42;;;;;;;;;;6225989;22;20316;-72
2022/03/30 01:47:52;;;;;;;5.40;4.47;;;;;;;;;;6250825;22;20057;-72
2022/03/30 01:50:18;;;;;;;5.20;4.80;;;;;;;;;;6276580;22;20015;-73
2022/03/30 01:52:45;;;;;;;5.15;4.70;;;;;;;;;;6273592;22;20023;-73
2022/03/30 01:55:11;;;;;;;3.53;3.33;;;;;;;;;;6275972;22;20011;-72
2022/03/30 01:57:37;;;;;;;6.18;4.50;;;;;;;;;;6276229;22;20027;-73
2022/03/30 02:00:04;;;;;;;5.25;4.85;;;;;;;;;;6277064;22;20019;-73
2022/03/30 02:02:38;;;;;;;3.95;3.40;;;;;;;;;;6276691;22;20022;-72
2022/03/30 02:05:05;;;;;;;4.50;4.18;;;;;;;;;;6275605;22;20019;-73
2022/03/30 02:07:31;;;;;;;4.35;3.95;;;;;;;;;;6277226;22;20008;-72
2022/03/30 02:09:57;;;;;;;4.00;3.70;;;;;;;;;;6275447;22;20016;-73
2022/03/30 02:12:23;;;;;;;5.57;5.10;;;;;;;;;;6275163;22;20073;-72
2022/03/30 02:14:51;;;;;;;5.65;3.28;;;;;;;;;;6274790;22;20096;-72
2022/03/30 02:17:18;;;;;;;8.15;5.68;;;;;;;;;;6275209;22;20415;-73
2022/03/30 02:19:45;;;;;;;5.28;4.78;;;;;;;;;;6249371;22;20012;-72
2022/03/30 02:22:10;;;;;;;5.90;4.25;;;;;;;;;;6275150;22;20015;-72
2022/03/30 02:24:37;;;;;;;7.88;5.70;;;;;;;;;;6276823;22;20355;-73
2022/03/30 02:27:03;;;;;;;3.90;3.60;;;;;;;;;;6249196;22;20086;-72
2022/03/30 02:29:29;;;;;;;5.68;5.20;;;;;;;;;;6275687;22;20019;-72
2022/03/30 02:31:55;;;;;;;5.32;4.90;;;;;;;;;;6275973;22;20016;-73
2022/03/30 02:34:22;;;;;;;5.10;4.45;;;;;;;;;;6277961;22;20056;-73
2022/03/30 02:36:48;;;;;;;4.63;4.32;;;;;;;;;;6249285;22;20451;-73
2022/03/30 02:39:15;;;;;;;5.13;4.07;;;;;;;;;;6275787;22;20011;-73
2022/03/30 02:41:41;;;;;;;6.60;5.97;;;;;;;;;;6277795;22;20090;-73
2022/03/30 02:44:08;;;;;;;5.65;5.07;;;;;;;;;;6247831;22;20105;-72
2022/03/30 02:46:34;;;;;;;6.03;5.53;;;;;;;;;;6274950;22;20062;-71
2022/03/30 02:49:00;;;;;;;5.72;5.22;;;;;;;;;;6277973;22;20416;-72
2022/03/30 02:51:27;;;;;;;4.88;4.53;;;;;;;;;;6250062;22;20023;-73
2022/03/30 02:53:53;;;;;;;6.45;5.55;;;;;;;;;;6275413;22;20015;-71
2022/03/30 02:56:19;;;;;;;4.55;4.25;;;;;;;;;;6278431;22;20023;-74
2022/03/30 02:58:45;;;;;;;16.00;3.30;;;;;;;;;;6249776;22;20012;-72
2022/03/30 03:01:11;;;;;;;6.53;5.72;;;;;;;;;;6250051;22;20410;-73
2022/03/30 03:03:37;;;;;;;6.60;5.88;;;;;;;;;;6275926;22;20012;-73
2022/03/30 03:06:02;;;;;;;7.70;7.10;;;;;;;;;;6277554;22;20452;-75
2022/03/30 03:08:28;;;;;;;4.95;4.57;;;;;;;;;;6277542;22;20012;-73
2022/03/30 03:10:54;;;;;;;5.93;5.32;;;;;;;;;;6276883;22;20008;-73
2022/03/30 03:13:20;;;;;;;6.68;4.97;;;;;;;;;;6249055;22;20383;-72
2022/03/30 03:15:46;;;;;;;5.60;5.20;;;;;;;;;;6246898;22;20020;-73
2022/03/30 03:18:13;;;;;;;5.82;5.03;;;;;;;;;;6272789;22;20134;-73
2022/03/30 03:20:42;;;;;;;7.07;4.65;;;;;;;;;;6275209;22;20019;-73
2022/03/30 03:23:09;;;;;;;7.38;5.47;;;;;;;;;;6275732;22;20046;-74
2022/03/30 03:25:35;;;;;;;3.95;3.65;;;;;;;;;;6225550;22;20098;-73
2022/03/30 03:28:01;;;;;;;2.60;2.50;;;;;;;;;;6250637;22;20028;-72
2022/03/30 03:30:27;;;;;;;3.90;3.58;;;;;;;;;;6249714;22;20099;-73
2022/03/30 03:32:53;;;;;;;4.63;4.15;;;;;;;;;;6249650;22;20008;-73
2022/03/30 03:35:19;;;;;;;3.78;3.47;;;;;;;;;;6275703;22;20019;-73
2022/03/30 03:37:45;;;;;;;3.38;3.17;;;;;;;;;;6250057;22;20011;-73
2022/03/30 03:40:11;;;;;;;4.07;3.67;;;;;;;;;;6275280;22;20007;-72
2022/03/30 03:42:37;;;;;;;3.25;3.05;;;;;;;;;;6278423;22;20015;-72
2022/03/30 03:45:03;;;;;;;5.03;4.57;;;;;;;;;;6276145;22;20023;-73
2022/03/30 03:47:29;;;;;;;2.42;2.33;;;;;;;;;;6275949;22;20014;-74
2022/03/30 03:49:55;;;;;;;3.22;3.08;;;;;;;;;;6276176;22;20039;-72
2022/03/30 03:52:21;;;;;;;4.82;4.43;;;;;;;;;;6277359;22;20490;-72
2022/03/30 03:54:46;;;;;;;5.95;4.05;;;;;;;;;;6250448;22;20015;-73
2022/03/30 03:57:12;;;;;;;3.63;3.42;;;;;;;;;;6276823;22;20019;-73
2022/03/30 03:59:38;;;;;;;4.65;3.83;;;;;;;;;;6248960;22;20012;-74
2022/03/30 04:02:07;;;;;;;4.63;4.32;;;;;;;;;;6274788;22;20015;-75
2022/03/30 04:04:33;;;;;;;3.78;3.47;;;;;;;;;;6276672;22;20018;-73
2022/03/30 04:06:59;;;;;;;2.45;2.25;;;;;;;;;;6273730;22;20015;-72
2022/03/30 04:09:25;;;;;;;4.00;3.70;;;;;;;;;;6225080;22;20011;-72
2022/03/30 04:11:53;;;;;;;4.22;3.63;;;;;;;;;;6276614;22;20011;-71
2022/03/30 04:14:20;;;;;;;4.60;4.20;;;;;;;;;;6277066;22;20443;-73
2022/03/30 04:16:45;;;;;;;4.13;3.83;;;;;;;;;;6275477;22;20556;-71
2022/03/30 04:19:11;;;;;;;2.40;2.30;;;;;;;;;;6275395;22;20011;-71
2022/03/30 04:21:37;;;;;;;4.38;4.00;;;;;;;;;;6277747;22;20037;-73
2022/03/30 04:24:04;;;;;;;9.82;2.83;;;;;;;;;;6249031;22;20098;-72
2022/03/30 04:26:34;;;;;;;2.92;2.72;;;;;;;;;;6197620;22;20049;-72
2022/03/30 04:29:01;;;;;;;2.72;2.53;;;;;;;;;;6248789;22;20023;-75
2022/03/30 04:31:27;;;;;;;3.67;3.45;;;;;;;;;;6224660;22;20408;-72
2022/03/30 04:33:54;;;;;;;3.33;3.03;;;;;;;;;;6199056;22;20509;-73
2022/03/30 04:36:20;;;;;;;6.40;2.80;;;;;;;;;;6248763;22;20031;-73
2022/03/30 04:38:45;;;;;;;2.40;2.30;;;;;;;;;;6274697;22;20007;-73
2022/03/30 04:41:11;;;;;;;3.65;3.35;;;;;;;;;;6275262;22;20048;-74
2022/03/30 04:43:38;;;;;;;3.35;3.05;;;;;;;;;;6249305;22;20049;-73
2022/03/30 04:46:05;;;;;;;3.35;3.15;;;;;;;;;;6273924;22;20015;-73
2022/03/30 04:48:32;;;;;;;6.20;3.58;;;;;;;;;;6224041;22;20038;-73
2022/03/30 04:50:58;;;;;;;2.40;2.30;;;;;;;;;;6223616;22;20464;-74
2022/03/30 04:53:24;;;;;;;3.22;3.10;;;;;;;;;;6276204;22;20022;-78
2022/03/30 04:55:51;;;;;;;3.17;2.97;;;;;;;;;;6276485;22;20015;-73
2022/03/30 04:58:17;;;;;;;3.30;3.10;;;;;;;;;;6197771;22;20016;-74
2022/03/30 05:00:43;;;;;;;3.58;3.28;;;;;;;;;;6276480;22;20118;-75
2022/03/30 05:03:09;;;;;;;2.13;2.03;;;;;;;;;;6248584;22;20336;-72
2022/03/30 05:05:35;;;;;;;2.70;2.50;;;;;;;;;;6276067;22;20069;-73
2022/03/30 05:08:01;;;;;;;2.75;2.65;;;;;;;;;;6274674;22;20031;-74
2022/03/30 05:10:28;;;;;;;3.80;3.53;;;;;;;;;;6276356;22;20046;-74
2022/03/30 05:12:54;;;;;;;3.50;3.30;;;;;;;;;;6276383;22;20012;-73
2022/03/30 05:15:23;;;;;;;3.75;3.55;;;;;;;;;;6274396;22;20023;-73
2022/03/30 05:17:49;;;;;;;2.50;2.40;;;;;;;;;;6248482;22;20456;-74
2022/03/30 05:20:15;;;;;;;3.45;3.25;;;;;;;;;;6274156;22;20118;-73
2022/03/30 05:22:41;;;;;;;3.15;2.88;;;;;;;;;;6273776;22;20043;-74
2022/03/30 05:25:07;;;;;;;4.38;3.85;;;;;;;;;;6248304;22;20018;-73
2022/03/30 05:27:33;;;;;;;2.22;2.13;;;;;;;;;;6248728;22;20057;-73
2022/03/30 05:30:03;;;;;;;3.88;3.58;;;;;;;;;;6249283;22;20016;-74
2022/03/30 05:33:09;;;;;;;2.75;2.65;;;;;;;;;;6215014;22;20012;-73
2022/03/30 05:35:35;;;;;;;2.90;2.70;;;;;;;;;;6274571;22;20076;-73
2022/03/30 05:38:01;;;;;;;3.72;3.42;;;;;;;;;;6247901;22;20011;-73
2022/03/30 05:40:52;;;;;;;2.55;2.45;;;;;;;;;;6277207;22;20455;-72
2022/03/30 05:43:21;;;;;;;3.05;2.85;;;;;;;;;;6248134;22;20015;-72
2022/03/30 05:45:52;;;;;;;3.20;2.90;;;;;;;;;;6269536;22;20491;-70
2022/03/30 05:48:39;;;;;;;10.10;2.58;;;;;;;;;;6237899;22;20103;-71
2022/03/30 05:51:18;;;;;;;3.63;2.35;;;;;;;;;;6247192;22;20363;-71
2022/03/30 05:53:45;;;;;;;1.87;1.87;;;;;;;;;;6273062;22;20011;-71
2022/03/30 05:56:11;;;;;;;1.88;1.77;;;;;;;;;;6222421;22;20266;-71
2022/03/30 05:58:37;;;;;;;3.33;3.03;;;;;;;;;;6248402;22;20104;-70
2022/03/30 06:01:03;;;;;;;2.20;2.10;;;;;;;;;;6247834;22;20011;-70
2022/03/30 06:03:29;;;;;;;2.05;2.00;;;;;;;;;;6274890;22;20037;-70
2022/03/30 06:05:55;;;;;;;2.90;2.75;;;;;;;;;;6274825;22;20011;-71
2022/03/30 06:08:21;;;;;;;2.95;2.67;;;;;;;;;;6247831;22;20016;-71
2022/03/30 06:10:49;;;;;;;2.28;2.08;;;;;;;;;;6275699;22;20441;-70
2022/03/30 06:13:15;;;;;;;3.08;2.88;;;;;;;;;;6275765;22;20534;-70
2022/03/30 06:15:42;;;;;;;4.30;3.58;;;;;;;;;;6248402;22;20070;-69
2022/03/30 06:21:10;;;;;;;2.53;2.30;;;;;;;;;;6257708;22;20460;-72
2022/03/30 06:23:39;;;;;;;4.13;2.90;;;;;;;;;;6274155;22;20008;-70
2022/03/30 06:26:16;;;;;;;3.08;2.88;;;;;;;;;;6273957;22;20050;-70
2022/03/30 06:29:15;;;;;;;3.88;3.55;;;;;;;;;;6239214;22;20107;-71
2022/03/30 06:31:56;;;;;;;3.47;3.17;;;;;;;;;;6273963;22;20016;-71
2022/03/30 06:34:44;;;;;;;2.88;2.78;;;;;;;;;;6214925;23;20023;-71
2022/03/30 06:37:33;;;;;;;3.25;3.03;;;;;;;;;;6214731;23;20043;-71
2022/03/30 06:40:03;;;;;;;3.15;2.83;;;;;;;;;;6208427;23;20031;-70
2022/03/30 06:42:29;;;;;;;3.25;3.05;;;;;;;;;;6241256;23;20012;-71
2022/03/30 06:44:56;;;;;;;3.17;2.97;;;;;;;;;;6214951;23;20027;-71
2022/03/30 06:47:22;;;;;;;3.13;2.92;;;;;;;;;;6240025;23;20020;-69
2022/03/30 06:49:48;;;;;;;3.25;3.10;;;;;;;;;;6239609;23;20016;-70
2022/03/30 06:52:14;;;;;;;3.35;2.83;;;;;;;;;;6239326;23;20091;-71
2022/03/30 06:54:40;;;;;;;2.50;2.38;;;;;;;;;;6214856;23;20136;-71
2022/03/30 06:57:06;;;;;;;3.58;3.38;;;;;;;;;;6213875;23;20019;-71
2022/03/30 06:59:32;;;;;;;4.85;4.50;;;;;;;;;;6213827;23;20016;-70
2022/03/30 07:01:58;;;;;;;4.10;3.75;;;;;;;;;;6239181;23;20383;-73
2022/03/30 07:04:24;;;;;;;2.53;2.33;;;;;;;;;;6244176;22;20018;-70
2022/03/30 07:12:22;;;;;;;4.75;3.63;;;;;;;;;;6272869;22;20093;-70
2022/03/30 07:14:49;;;;;;;2.95;2.75;;;;;;;;;;6245052;22;20008;-70
2022/03/30 07:17:15;;;;;;;2.92;2.80;;;;;;;;;;6270418;22;20350;-70
2022/03/30 07:19:41;;;;;;;3.63;3.42;;;;;;;;;;6272345;22;20011;-70
2022/03/30 07:22:07;;;;;;;3.92;2.78;;;;;;;;;;6245194;22;20333;-70
2022/03/30 07:24:32;;;;;;;2.20;2.10;;;;;;;;;;6273112;22;20007;-71
2022/03/30 07:26:59;;;;;;;2.22;2.13;;;;;;;;;;6272836;22;20470;-72
2022/03/30 07:29:24;;;;;;;2.03;1.92;;;;;;;;;;6272502;22;20023;-71
2022/03/30 07:31:50;;;;;;;3.72;3.42;;;;;;;;;;6219816;22;20012;-71
2022/03/30 07:34:17;;;;;;;3.15;2.95;;;;;;;;;;6271673;22;20042;-71
2022/03/30 07:36:45;;;;;;;3.38;3.17;;;;;;;;;;6245560;22;20012;-72
2022/03/30 07:39:11;;;;;;;2.70;2.60;;;;;;;;;;6245312;22;20011;-71
2022/03/30 07:41:37;;;;;;;2.85;2.65;;;;;;;;;;6273021;22;20038;-74
2022/03/30 07:44:05;;;;;;;2.25;2.15;;;;;;;;;;6245871;22;20035;-72
2022/03/30 07:46:34;;;;;;;3.25;3.05;;;;;;;;;;6272373;22;20046;-70
2022/03/30 07:49:02;;;;;;;3.13;2.85;;;;;;;;;;6244800;22;20066;-71
2022/03/30 07:51:29;;;;;;;4.13;3.83;;;;;;;;;;6272122;22;20011;-71
2022/03/30 07:53:55;;;;;;;2.40;2.30;;;;;;;;;;6271503;22;20008;-70
2022/03/30 07:56:25;;;;;;;3.10;2.90;;;;;;;;;;6271850;22;20045;-71
2022/03/30 07:58:53;;;;;;;2.78;2.58;;;;;;;;;;6271990;22;20082;-72
2022/03/30 08:01:19;;;;;;;3.95;3.70;;;;;;;;;;6244661;22;20011;-72
2022/03/30 08:03:45;;;;;;;2.75;2.55;;;;;;;;;;6269650;22;20433;-73
2022/03/30 08:06:12;;;;;;;3.78;3.33;;;;;;;;;;6271367;22;20517;-72
2022/03/30 08:08:38;;;;;;;2.20;2.10;;;;;;;;;;6271309;22;20149;-72
2022/03/30 08:11:05;;;;;;;3.03;2.83;;;;;;;;;;6270439;22;20011;-71
2022/03/30 08:13:31;;;;;;;1.50;1.50;;;;;;;;;;6219414;22;20007;-68
2022/03/30 08:15:57;;;;;;;2.00;1.90;;;;;;;;;;6220313;22;20047;-69
2022/03/30 08:18:23;;;;;;;3.40;3.20;;;;;;;;;;6270413;22;20034;-69
2022/03/30 08:23:36;;;;;;;1.50;1.50;;;;;;;;;;6270345;22;20022;-69
2022/03/30 08:26:02;;;;;;;2.42;2.33;;;;;;;;;;6244385;22;20053;-69
2022/03/30 08:28:28;;;;;;;4.15;2.25;;;;;;;;;;6271073;22;20020;-69
2022/03/30 08:30:54;;;;;;;2.65;2.55;;;;;;;;;;6271375;22;20019;-69
2022/03/30 08:33:23;;;;;;;2.25;2.15;;;;;;;;;;6270936;22;20355;-69
2022/03/30 08:35:50;;;;;;;2.90;2.70;;;;;;;;;;6271063;22;20022;-69
2022/03/30 08:38:16;;;;;;;3.38;3.05;;;;;;;;;;6270937;22;20464;-69
2022/03/30 08:40:42;;;;;;;3.10;2.90;;;;;;;;;;6269729;22;20031;-69
2022/03/30 08:43:11;;;;;;;3.38;3.17;;;;;;;;;;6270959;22;20035;-70
2022/03/30 08:45:37;;;;;;;2.33;2.22;;;;;;;;;;6244219;22;20470;-69
2022/03/30 08:48:02;;;;;;;1.88;1.88;;;;;;;;;;6271159;22;20012;-69
2022/03/30 08:50:31;;;;;;;2.40;2.30;;;;;;;;;;6243757;22;20360;-70
2022/03/30 08:52:58;;;;;;;5.15;2.17;;;;;;;;;;6270620;22;20015;-71
2022/03/30 08:55:24;;;;;;;3.08;2.70;;;;;;;;;;6271269;22;20057;-71
2022/03/30 08:57:50;;;;;;;6.00;2.95;;;;;;;;;;6269906;22;20019;-70
2022/03/30 09:00:17;;;;;;;2.47;2.28;;;;;;;;;;6270591;22;20436;-70
2022/03/30 09:02:44;;;;;;;3.03;2.50;;;;;;;;;;6244165;22;20074;-71
2022/03/30 09:05:16;;;;;;;2.20;2.10;;;;;;;;;;6243594;22;20019;-71
2022/03/30 09:07:42;;;;;;;1.85;1.75;;;;;;;;;;6218050;22;20019;-72
2022/03/30 09:10:12;;;;;;;2.35;2.15;;;;;;;;;;6270753;22;20091;-72
2022/03/30 09:12:38;;;;;;;2.85;2.65;;;;;;;;;;6272424;22;20012;-73
2022/03/30 09:15:04;;;;;;;2.40;2.30;;;;;;;;;;6272532;22;20385;-72
2022/03/30 09:17:37;;;;;;;1.90;1.80;;;;;;;;;;6272612;22;20016;-71
2022/03/30 09:20:03;;;;;;;2.17;2.08;;;;;;;;;;6243805;22;20039;-71
2022/03/30 09:22:31;;;;;;;2.95;2.75;;;;;;;;;;6271912;22;20038;-72
2022/03/30 09:24:57;;;;;;;2.95;2.33;;;;;;;;;;6271470;22;20022;-72
2022/03/30 09:27:24;;;;;;;2.92;2.13;;;;;;;;;;6273068;22;20077;-71
2022/03/30 09:29:50;;;;;;;2.20;2.08;;;;;;;;;;6272070;22;20095;-72
2022/03/30 09:32:16;;;;;;;2.38;2.28;;;;;;;;;;6271265;22;20114;-72
2022/03/30 09:34:46;;;;;;;2.42;2.33;;;;;;;;;;6269520;22;20463;-72
2022/03/30 09:37:12;;;;;;;2.10;1.95;;;;;;;;;;6269670;22;20455;-71
2022/03/30 09:39:38;;;;;;;1.83;1.83;;;;;;;;;;6270191;22;20022;-71
2022/03/30 09:42:05;;;;;;;1.98;1.92;;;;;;;;;;6272051;22;20015;-71
2022/03/30 09:44:43;;;;;;;3.40;2.03;;;;;;;;;;6273020;22;20012;-71
2022/03/30 09:47:09;;;;;;;2.03;1.98;;;;;;;;;;6272181;22;20020;-71
2022/03/30 09:49:39;;;;;;;2.25;2.10;;;;;;;;;;6271077;22;20007;-69
2022/03/30 09:52:11;;;;;;;2.47;2.37;;;;;;;;;;6273204;22;20404;-70
2022/03/30 09:54:38;;;;;;;4.10;2.75;;;;;;;;;;6247312;22;20268;-71
2022/03/30 09:57:30;;;;;;;3.92;2.92;;;;;;;;;;6273055;22;20015;-70
2022/03/30 10:00:30;;;;;;;2.30;2.20;;;;;;;;;;6241966;22;20016;-70
2022/03/30 10:02:56;;;;;;;2.67;2.47;;;;;;;;;;6221789;22;20011;-70
2022/03/30 10:05:22;;;;;;;1.90;1.80;;;;;;;;;;6245181;22;20021;-71
2022/03/30 10:07:48;;;;;;;1.52;1.48;;;;;;;;;;6245248;22;20015;-71
2022/03/30 10:10:15;;;;;;;2.58;2.15;;;;;;;;;;6270984;22;20081;-69
2022/03/30 10:12:41;;;;;;;4.35;2.35;;;;;;;;;;6245169;22;20016;-70
2022/03/30 10:15:08;;;;;;;2.38;2.28;;;;;;;;;;6273275;22;20516;-71
2022/03/30 10:17:34;;;;;;;1.38;1.38;;;;;;;;;;6245421;22;20122;-70
2022/03/30 10:20:01;;;;;;;5.22;2.40;;;;;;;;;;6271135;22;20710;-71
2022/03/30 10:22:38;;;;;;;2.50;2.30;;;;;;;;;;6246027;22;20019;-73
2022/03/30 10:25:06;;;;;;;1.63;1.58;;;;;;;;;;6272499;22;20447;-70
2022/03/30 10:27:47;;;;;;;2.10;2.00;;;;;;;;;;6244866;22;20080;-71
2022/03/30 10:30:13;;;;;;;3.92;3.47;;;;;;;;;;6245172;22;20074;-70
2022/03/30 10:32:39;;;;;;;5.80;3.10;;;;;;;;;;6270602;22;20011;-70
2022/03/30 10:35:10;;;;;;;2.30;2.20;;;;;;;;;;6271452;22;20082;-71
2022/03/30 10:37:38;;;;;;;1.90;1.80;;;;;;;;;;6272369;22;20007;-70
2022/03/30 10:40:04;;;;;;;2.50;2.30;;;;;;;;;;6246152;22;20489;-70
2022/03/30 10:42:49;;;;;;;3.60;3.30;;;;;;;;;;6272980;22;20031;-70
2022/03/30 10:45:34;;;;;;;2.63;1.50;;;;;;;;;;6271126;22;20015;-70
2022/03/30 10:48:06;;;;;;;1.83;1.75;;;;;;;;;;6245301;22;20077;-70
2022/03/30 10:50:33;;;;;;;1.30;1.30;;;;;;;;;;6272550;22;20360;-70
2022/03/30 10:52:59;;;;;;;1.85;1.75;;;;;;;;;;6272365;22;20027;-70
2022/03/30 10:55:26;;;;;;;2.10;1.95;;;;;;;;;;6271322;22;20337;-70
2022/03/30 10:57:53;;;;;;;1.75;1.75;;;;;;;;;;6272405;22;20090;-70
2022/03/30 11:00:27;;;;;;;1.52;1.52;;;;;;;;;;6270431;22;20366;-71
2022/03/30 11:02:54;;;;;;;2.25;2.05;;;;;;;;;;6271009;22;20026;-70
2022/03/30 11:05:28;;;;;;;2.20;2.10;;;;;;;;;;6219433;22;20018;-71
2022/03/30 11:07:53;;;;;;;2.10;2.00;;;;;;;;;;6219657;22;20361;-69
2022/03/30 11:10:27;;;;;;;2.00;1.90;;;;;;;;;;6244585;22;20046;-70
2022/03/30 11:13:00;;;;;;;2.92;2.25;;;;;;;;;;6271520;22;20034;-70
2022/03/30 11:15:26;;;;;;;2.15;2.05;;;;;;;;;;6271783;22;20007;-71
2022/03/30 11:17:53;;;;;;;2.13;2.03;;;;;;;;;;6244704;22;20551;-71
2022/03/30 11:20:20;;;;;;;1.52;1.52;;;;;;;;;;6269863;22;20301;-70
2022/03/30 11:22:47;;;;;;;2.72;2.08;;;;;;;;;;6270256;22;20069;-71
2022/03/30 11:25:19;;;;;;;1.88;1.77;;;;;;;;;;6271817;22;20133;-71
2022/03/30 11:27:58;;;;;;;1.35;1.35;;;;;;;;;;6271073;22;20027;-71
2022/03/30 11:30:24;;;;;;;1.73;1.73;;;;;;;;;;6244567;22;20070;-71
2022/03/30 11:32:50;;;;;;;2.13;2.03;;;;;;;;;;6269939;22;20022;-71
2022/03/30 11:35:17;;;;;;;3.88;2.17;;;;;;;;;;6244256;22;20007;-71
2022/03/30 11:37:44;;;;;;;2.00;1.90;;;;;;;;;;6269426;22;20015;-71
2022/03/30 11:40:16;;;;;;;1.88;1.77;;;;;;;;;;6244646;22;20007;-71
2022/03/30 11:42:42;;;;;;;1.83;1.73;;;;;;;;;;6271545;22;20023;-72
2022/03/30 11:45:21;;;;;;;2.35;2.15;;;;;;;;;;6269689;22;20015;-71
2022/03/30 11:47:52;;;;;;;1.80;1.80;;;;;;;;;;6271420;22;20058;-71
2022/03/30 11:50:31;;;;;;;1.85;1.75;;;;;;;;;;6269688;22;20012;-71
2022/03/30 11:53:07;;;;;;;2.42;2.00;;;;;;;;;;6194262;22;20015;-71
2022/03/30 11:55:35;;;;;;;3.58;3.28;;;;;;;;;;6244589;22;20004;-70
2022/03/30 11:58:01;;;;;;;2.38;1.95;;;;;;;;;;6271301;22;20019;-71
2022/03/30 12:00:27;;;;;;;2.03;1.92;;;;;;;;;;6266426;22;20003;-70
2022/03/30 12:02:56;;;;;;;3.22;2.05;;;;;;;;;;6270146;22;20020;-70
2022/03/30 12:05:22;;;;;;;1.60;1.58;;;;;;;;;;6271383;22;20094;-70
2022/03/30 12:07:55;;;;;;;1.05;1.05;;;;;;;;;;6271120;22;20073;-70
2022/03/30 12:10:27;;;;;;;2.00;1.90;;;;;;;;;;6271420;22;20008;-70
2022/03/30 12:12:52;;;;;;;1.40;1.40;;;;;;;;;;6271731;22;20329;-70
2022/03/30 12:15:19;;;;;;;1.38;1.30;;;;;;;;;;6269696;22;20019;-70
2022/03/30 12:17:49;;;;;;;1.48;1.48;;;;;;;;;;6271614;22;20018;-70
2022/03/30 12:20:24;;;;;;;3.63;1.40;;;;;;;;;;6270970;22;20072;-70
2022/03/30 12:22:58;;;;;;;1.60;1.50;;;;;;;;;;6271496;22;20095;-70
2022/03/30 12:25:25;;;;;;;1.67;1.60;;;;;;;;;;6271465;22;20012;-70
2022/03/30 12:27:51;;;;;;;1.38;1.38;;;;;;;;;;6268907;22;20572;-70
2022/03/30 12:30:18;;;;;;;1.27;1.27;;;;;;;;;;6243880;22;20011;-70
2022/03/30 12:32:43;;;;;;;1.50;1.50;;;;;;;;;;6269972;22;20026;-70
2022/03/30 12:35:10;;;;;;;1.60;1.50;;;;;;;;;;6218362;22;20090;-69
2022/03/30 12:37:36;;;;;;;1.70;1.60;;;;;;;;;;6244228;22;20023;-71
2022/03/30 12:40:09;;;;;;;2.75;1.38;;;;;;;;;;6270566;22;20004;-71
2022/03/30 12:42:36;;;;;;;1.35;1.35;;;;;;;;;;6271267;22;20363;-70
2022/03/30 12:45:05;;;;;;;2.35;1.40;;;;;;;;;;6218095;22;20098;-71
2022/03/30 12:47:32;;;;;;;1.27;1.27;;;;;;;;;;6266018;22;20031;-71
2022/03/30 12:49:59;;;;;;;1.45;1.45;;;;;;;;;;6271045;22;20352;-71
2022/03/30 12:52:37;;;;;;;1.77;1.70;;;;;;;;;;6246804;22;20332;-70
2022/03/30 12:55:17;;;;;;;1.88;1.77;;;;;;;;;;6272960;22;20281;-70
2022/03/30 12:57:50;;;;;;;1.88;1.77;;;;;;;;;;6271405;22;20016;-70
2022/03/30 13:00:17;;;;;;;1.83;1.60;;;;;;;;;;6272530;22;20039;-69
2022/03/30 13:02:43;;;;;;;2.80;1.48;;;;;;;;;;6245056;22;20039;-70
2022/03/30 13:05:11;;;;;;;1.83;1.50;;;;;;;;;;6272393;22;20007;-69
2022/03/30 13:07:49;;;;;;;4.45;2.00;;;;;;;;;;6271165;22;20029;-70
2022/03/30 13:10:18;;;;;;;1.23;1.23;;;;;;;;;;6244133;22;20059;-69
2022/03/30 13:12:46;;;;;;;1.50;1.40;;;;;;;;;;6272973;22;20360;-69
2022/03/30 13:15:13;;;;;;;1.98;1.75;;;;;;;;;;6271731;22;20046;-69
2022/03/30 13:17:57;;;;;;;1.80;1.73;;;;;;;;;;6245789;22;20034;-69
2022/03/30 13:20:25;;;;;;;1.05;1.05;;;;;;;;;;6272362;22;20023;-69
2022/03/30 13:22:52;;;;;;;1.48;1.48;;;;;;;;;;6272443;22;20422;-69
2022/03/30 13:25:28;;;;;;;1.92;1.83;;;;;;;;;;6272905;22;20012;-69
2022/03/30 13:27:54;;;;;;;1.20;1.20;;;;;;;;;;6243700;22;20031;-70
2022/03/30 13:30:21;;;;;;;1.10;1.10;;;;;;;;;;6270036;22;20047;-69
2022/03/30 13:32:47;;;;;;;1.52;1.52;;;;;;;;;;6270851;22;20016;-69
2022/03/30 13:35:13;;;;;;;1.48;1.48;;;;;;;;;;6270746;22;20008;-69
2022/03/30 13:37:39;;;;;;;1.58;1.48;;;;;;;;;;6272264;22;20604;-69
2022/03/30 13:40:05;;;;;;;1.42;1.42;;;;;;;;;;6271853;22;20054;-69
2022/03/30 13:42:34;;;;;;;2.25;1.80;;;;;;;;;;6244822;22;20012;-69
2022/03/30 13:45:00;;;;;;;2.13;1.60;;;;;;;;;;6270936;22;20119;-70
2022/03/30 13:47:27;;;;;;;1.85;1.50;;;;;;;;;;6245020;22;20047;-69
2022/03/30 13:49:54;;;;;;;1.10;1.10;;;;;;;;;;6271018;22;20015;-69
2022/03/30 13:52:21;;;;;;;1.20;1.20;;;;;;;;;;6268732;22;20444;-69
2022/03/30 13:54:47;;;;;;;1.40;1.40;;;;;;;;;;6270012;22;20371;-70
2022/03/30 13:57:14;;;;;;;1.40;1.40;;;;;;;;;;6270903;22;20019;-70
2022/03/30 13:59:40;;;;;;;1.40;1.40;;;;;;;;;;6272176;22;20023;-70
2022/03/30 14:02:06;;;;;;;1.73;1.65;;;;;;;;;;6272727;22;20016;-71
2022/03/30 14:05:19;;;;;;;2.00;1.90;;;;;;;;;;6268948;22;20007;-71
2022/03/30 14:08:38;;;;;;;1.85;1.75;;;;;;;;;;6253105;22;20088;-70
2022/03/30 14:11:04;;;;;;;0.93;0.93;;;;;;;;;;6270994;22;20091;-70
2022/03/30 14:20:05;;;;;;;1.83;1.73;;;;;;;;;;6179359;23;20032;-73
2022/03/30 14:22:31;;;;;;;1.95;1.70;;;;;;;;;;6182878;23;20013;-73
2022/03/30 14:24:57;;;;;;;2.35;1.88;;;;;;;;;;6180038;23;20093;-73
2022/03/30 14:27:23;;;;;;;1.90;1.80;;;;;;;;;;6179112;23;20021;-72
2022/03/30 14:29:49;;;;;;;2.92;2.15;;;;;;;;;;6178938;23;20009;-73
2022/03/30 14:32:16;;;;;;;4.00;1.95;;;;;;;;;;6181410;23;20103;-73
2022/03/30 14:34:43;;;;;;;2.45;2.20;;;;;;;;;;6182491;23;20461;-73
2022/03/30 14:37:08;;;;;;;1.33;1.33;;;;;;;;;;6180388;23;20079;-73
2022/03/30 14:39:35;;;;;;;3.88;1.40;;;;;;;;;;6180892;23;20488;-73
2022/03/30 14:42:02;;;;;;;1.63;1.15;;;;;;;;;;6154684;23;20397;-73
2022/03/30 14:44:27;;;;;;;2.30;2.20;;;;;;;;;;6181806;23;20017;-74
2022/03/30 14:46:53;;;;;;;2.20;2.00;;;;;;;;;;6183890;23;20071;-73
2022/03/30 14:49:19;;;;;;;1.70;1.60;;;;;;;;;;6184895;23;20009;-74
2022/03/30 14:51:45;;;;;;;1.73;1.63;;;;;;;;;;6184436;23;20017;-74
2022/03/30 14:54:11;;;;;;;1.60;1.58;;;;;;;;;;6184038;23;20008;-74
2022/03/30 14:56:37;;;;;;;6.47;2.05;;;;;;;;;;6183049;23;20397;-73
2022/03/30 14:59:03;;;;;;;1.40;1.30;;;;;;;;;;6157025;23;20036;-73
2022/03/30 15:01:30;;;;;;;2.35;2.25;;;;;;;;;;6178684;23;20023;-74
2022/03/30 15:03:55;;;;;;;3.15;1.60;;;;;;;;;;6181218;23;20019;-72
2022/03/30 15:06:21;;;;;;;7.22;2.00;;;;;;;;;;6178131;23;20024;-75
2022/03/30 15:08:49;;;;;;;1.90;1.80;;;;;;;;;;6181195;23;20088;-73
2022/03/30 15:11:15;;;;;;;1.80;1.70;;;;;;;;;;6154446;23;20492;-72
2022/03/30 15:13:41;;;;;;;2.00;1.90;;;;;;;;;;6180487;23;20024;-73
2022/03/30 15:16:08;;;;;;;3.75;2.00;;;;;;;;;;6209423;23;20101;-73
2022/03/30 15:18:34;;;;;;;6.32;2.08;;;;;;;;;;6208807;23;20012;-72
2022/03/30 15:21:00;;;;;;;1.85;1.75;;;;;;;;;;6184225;23;20025;-73
2022/03/30 15:23:28;;;;;;;2.78;1.83;;;;;;;;;;6211163;23;20363;-73
2022/03/30 15:26:03;;;;;;;3.95;2.00;;;;;;;;;;6158633;23;20456;-72
2022/03/30 15:28:30;;;;;;;2.10;2.00;;;;;;;;;;6210088;23;20008;-72
2022/03/30 15:30:55;;;;;;;6.43;2.25;;;;;;;;;;6209370;23;20012;-72
2022/03/30 15:33:22;;;;;;;4.45;2.20;;;;;;;;;;6210305;23;20008;-71
2022/03/30 15:35:50;;;;;;;4.72;2.38;;;;;;;;;;6210132;23;20024;-72
2022/03/30 15:38:16;;;;;;;2.80;2.10;;;;;;;;;;6209209;23;20005;-73